• Join FlightAware (Why Join?)
  • Login
  • US Flag 
06:15AM EDT


 

Airport Tracker/Info


-or-


 

Live Flight TrackerFlight Track Log ✈ DAL110 ✈ 17-Apr-2013 ✈ SAEZ / EZE - KATL

Flight Track Log - Related Links

Times and Time Zones

All times are in EDT time to prevent confusion due to time zone crossing. See the DAL110 flight status page for this flight to view local times or setup timezone preferences in your user account.

Time Position Orientation Groundspeed Altitude Reporting Facility
EDT Latitude Longitude Course Direction KTS MPH feet Rate Location/Type
07:37PM -34.7089 -58.5823 339° North  Level FlightAware Approximate
07:38PM -34.5943 -58.6357 339° North  Level FlightAware Approximate
07:39PM -34.4797 -58.6889 339° North  Level FlightAware Approximate
07:40PM -34.3650 -58.7419 339° North  Level FlightAware Approximate
07:41PM -34.2503 -58.7948 339° North  Level FlightAware Approximate
07:42PM -34.1356 -58.8476 339° North  Level FlightAware Approximate
07:43PM -34.0201 -58.9006 339° North  Level FlightAware Approximate
07:44PM -33.9046 -58.9534 339° North  Level FlightAware Approximate
07:45PM -33.7891 -59.0061 339° North  Level FlightAware Approximate
07:46PM -33.6735 -59.0587 339° North  Level FlightAware Approximate
07:47PM -33.5580 -59.1111 339° North  Level FlightAware Approximate
07:48PM -33.4424 -59.1633 339° North  Level FlightAware Approximate
07:49PM -33.3267 -59.2155 339° North  Level FlightAware Approximate
07:50PM -33.2086 -59.2689 339° North  Level FlightAware Approximate
07:51PM -33.0932 -59.3214 339° North  Level FlightAware Approximate
07:52PM -32.9777 -59.3738 339° North  Level FlightAware Approximate
07:53PM -32.8622 -59.4261 339° North  Level FlightAware Approximate
07:54PM -32.7467 -59.4782 339° North  Level FlightAware Approximate
07:55PM -32.6311 -59.5303 339° North  Level FlightAware Approximate
07:56PM -32.5156 -59.5821 339° North  Level FlightAware Approximate
07:57PM -32.4000 -59.6339 339° North  Level FlightAware Approximate
07:58PM -32.2844 -59.6855 339° North  Level FlightAware Approximate
07:59PM -32.1688 -59.7369 339° North  Level FlightAware Approximate
08:00PM -32.0531 -59.7883 339° North  Level FlightAware Approximate
08:01PM -31.9375 -59.8395 339° North  Level FlightAware Approximate
08:02PM -31.8218 -59.8906 339° North  Level FlightAware Approximate
08:03PM -31.7061 -59.9415 339° North  Level FlightAware Approximate
08:04PM -31.5904 -59.9924 339° North  Level FlightAware Approximate
08:05PM -31.4746 -60.0430 340° North  Level FlightAware Approximate
08:06PM -31.3589 -60.0936 340° North  Level FlightAware Approximate
08:07PM -31.2431 -60.1441 340° North  Level FlightAware Approximate
08:08PM -31.1273 -60.1944 340° North  Level FlightAware Approximate
08:09PM -31.0111 -60.2448 340° North  Level FlightAware Approximate
08:10PM -30.8949 -60.2950 340° North  Level FlightAware Approximate
08:11PM -30.7786 -60.3452 340° North  Level FlightAware Approximate
08:12PM -30.6623 -60.3952 340° North  Level FlightAware Approximate
08:13PM -30.5460 -60.4451 340° North  Level FlightAware Approximate
08:14PM -30.4297 -60.4948 340° North  Level FlightAware Approximate
08:15PM -30.3134 -60.5445 340° North  Level FlightAware Approximate
08:16PM -30.1971 -60.5940 340° North  Level FlightAware Approximate
08:17PM -30.0807 -60.6434 340° North  Level FlightAware Approximate
08:18PM -29.9643 -60.6927 340° North  Level FlightAware Approximate
08:19PM -29.8479 -60.7419 340° North  Level FlightAware Approximate
08:20PM -29.7315 -60.7910 340° North  Level FlightAware Approximate
08:21PM -29.6150 -60.8400 340° North  Level FlightAware Approximate
08:22PM -29.4986 -60.8888 340° North  Level FlightAware Approximate
08:23PM -29.3821 -60.9375 340° North  Level FlightAware Approximate
08:24PM -29.2656 -60.9861 340° North  Level FlightAware Approximate
08:25PM -29.1491 -61.0347 340° North  Level FlightAware Approximate
08:26PM -29.0326 -61.0831 340° North  Level FlightAware Approximate
08:27PM -28.9160 -61.1314 340° North  Level FlightAware Approximate
08:28PM -28.7995 -61.1795 340° North  Level FlightAware Approximate
08:29PM -28.6829 -61.2276 340° North  Level FlightAware Approximate
08:30PM -28.5663 -61.2756 340° North  Level FlightAware Approximate
08:31PM -28.4497 -61.3234 340° North  Level FlightAware Approximate
08:32PM -28.3331 -61.3712 340° North  Level FlightAware Approximate
08:33PM -28.2164 -61.4188 340° North  Level FlightAware Approximate
08:34PM -28.0998 -61.4664 340° North  Level FlightAware Approximate
08:35PM -27.9831 -61.5138 340° North  Level FlightAware Approximate
08:36PM -27.8664 -61.5612 340° North  Level FlightAware Approximate
08:37PM -27.7497 -61.6084 340° North  Level FlightAware Approximate
08:38PM -27.6329 -61.6555 340° North  Level FlightAware Approximate
08:39PM -27.5162 -61.7026 340° North  Level FlightAware Approximate
08:40PM -27.3995 -61.7495 340° North  Level FlightAware Approximate
08:41PM -27.2827 -61.7964 340° North  Level FlightAware Approximate
08:42PM -27.1659 -61.8431 340° North  Level FlightAware Approximate
08:43PM -27.0491 -61.8898 340° North  Level FlightAware Approximate
08:44PM -26.9323 -61.9363 340° North  Level FlightAware Approximate
08:45PM -26.8154 -61.9827 340° North  Level FlightAware Approximate
08:46PM -26.6986 -62.0291 340° North  Level FlightAware Approximate
08:47PM -26.5817 -62.0754 341° North  Level FlightAware Approximate
08:48PM -26.4648 -62.1215 341° North  Level FlightAware Approximate
08:49PM -26.3479 -62.1676 341° North  Level FlightAware Approximate
08:50PM -26.2310 -62.2136 341° North  Level FlightAware Approximate
08:51PM -26.1141 -62.2595 341° North  Level FlightAware Approximate
08:52PM -25.9972 -62.3052 341° North  Level FlightAware Approximate
08:53PM -25.8802 -62.3509 341° North  Level FlightAware Approximate
08:54PM -25.7632 -62.3966 341° North  Level FlightAware Approximate
08:55PM -25.6463 -62.4421 341° North  Level FlightAware Approximate
08:56PM -25.5293 -62.4875 341° North  Level FlightAware Approximate
08:57PM -25.4123 -62.5329 341° North  Level FlightAware Approximate
08:58PM -25.2952 -62.5781 341° North  Level FlightAware Approximate
08:59PM -25.1782 -62.6233 341° North  Level FlightAware Approximate
09:00PM -25.0611 -62.6684 341° North  Level FlightAware Approximate
09:01PM -24.9441 -62.7134 341° North  Level FlightAware Approximate
09:02PM -24.8270 -62.7583 341° North  Level FlightAware Approximate
09:03PM -24.7099 -62.8031 341° North  Level FlightAware Approximate
09:04PM -24.5928 -62.8479 341° North  Level FlightAware Approximate
09:05PM -24.4757 -62.8925 341° North  Level FlightAware Approximate
09:06PM -24.3585 -62.9371 341° North  Level FlightAware Approximate
09:07PM -24.2414 -62.9816 341° North  Level FlightAware Approximate
09:08PM -24.1242 -63.0260 341° North  Level FlightAware Approximate
09:09PM -24.0071 -63.0703 341° North  Level FlightAware Approximate
09:10PM -23.8899 -63.1146 341° North  Level FlightAware Approximate
09:11PM -23.7727 -63.1587 341° North  Level FlightAware Approximate
09:12PM -23.6555 -63.2028 341° North  Level FlightAware Approximate
09:13PM -23.5383 -63.2468 341° North  Level FlightAware Approximate
09:14PM -23.4210 -63.2908 341° North  Level FlightAware Approximate
09:15PM -23.3038 -63.3346 341° North  Level FlightAware Approximate
09:16PM -23.1865 -63.3784 341° North  Level FlightAware Approximate
09:17PM -23.0693 -63.4221 341° North  Level FlightAware Approximate
09:18PM -22.9520 -63.4657 341° North  Level FlightAware Approximate
09:19PM -22.8347 -63.5093 341° North  Level FlightAware Approximate
09:20PM -22.7174 -63.5528 341° North  Level FlightAware Approximate
09:21PM -22.6000 -63.5962 341° North  Level FlightAware Approximate
09:22PM -22.4827 -63.6395 341° North  Level FlightAware Approximate
09:23PM -22.3654 -63.6827 341° North  Level FlightAware Approximate
09:24PM -22.2480 -63.7259 341° North  Level FlightAware Approximate
09:25PM -22.1307 -63.7690 341° North  Level FlightAware Approximate
09:26PM -22.0133 -63.8121 341° North  Level FlightAware Approximate
09:27PM -21.8959 -63.8550 341° North  Level FlightAware Approximate
09:28PM -21.7785 -63.8979 341° North  Level FlightAware Approximate
09:29PM -21.6611 -63.9407 341° North  Level FlightAware Approximate
09:30PM -21.5437 -63.9835 341° North  Level FlightAware Approximate
09:31PM -21.4263 -64.0262 341° North  Level FlightAware Approximate
09:32PM -21.3088 -64.0688 341° North  Level FlightAware Approximate
09:33PM -21.1914 -64.1113 341° North  Level FlightAware Approximate
09:34PM -21.0739 -64.1538 341° North  Level FlightAware Approximate
09:35PM -20.9564 -64.1962 341° North  Level FlightAware Approximate
09:36PM -20.8388 -64.2386 341° North  Level FlightAware Approximate
09:37PM -20.7211 -64.2810 341° North  Level FlightAware Approximate
09:38PM -20.6034 -64.3233 341° North  Level FlightAware Approximate
09:39PM -20.4856 -64.3655 341° North  Level FlightAware Approximate
09:40PM -20.3679 -64.4077 341° North  Level FlightAware Approximate
09:41PM -20.2502 -64.4498 341° North  Level FlightAware Approximate
09:42PM -20.1325 -64.4918 341° North  Level FlightAware Approximate
09:43PM -20.0147 -64.5338 341° North  Level FlightAware Approximate
09:44PM -19.8969 -64.5757 342° North  Level FlightAware Approximate
09:45PM -19.7792 -64.6175 342° North  Level FlightAware Approximate
09:46PM -19.6614 -64.6593 342° North  Level FlightAware Approximate
09:47PM -19.5436 -64.7010 342° North  Level FlightAware Approximate
09:48PM -19.4258 -64.7427 342° North  Level FlightAware Approximate
09:49PM -19.3080 -64.7843 342° North  Level FlightAware Approximate
09:50PM -19.1902 -64.8258 342° North  Level FlightAware Approximate
09:51PM -19.0723 -64.8673 342° North  Level FlightAware Approximate
09:52PM -18.9545 -64.9087 342° North  Level FlightAware Approximate
09:53PM -18.8367 -64.9501 342° North  Level FlightAware Approximate
09:54PM -18.7188 -64.9914 342° North  Level FlightAware Approximate
09:55PM -18.6009 -65.0326 342° North  Level FlightAware Approximate
09:56PM -18.4830 -65.0738 342° North  Level FlightAware Approximate
09:57PM -18.3652 -65.1149 342° North  Level FlightAware Approximate
09:58PM -18.2473 -65.1560 342° North  Level FlightAware Approximate
09:59PM -18.1294 -65.1970 342° North  Level FlightAware Approximate
10:00PM -18.0115 -65.2380 342° North  Level FlightAware Approximate
10:01PM -17.8936 -65.2789 342° North  Level FlightAware Approximate
10:02PM -17.7756 -65.3197 342° North  Level FlightAware Approximate
10:03PM -17.6577 -65.3605 342° North  Level FlightAware Approximate
10:04PM -17.5397 -65.4013 342° North  Level FlightAware Approximate
10:05PM -17.4218 -65.4420 342° North  Level FlightAware Approximate
10:06PM -17.3038 -65.4826 342° North  Level FlightAware Approximate
10:07PM -17.1859 -65.5232 342° North  Level FlightAware Approximate
10:08PM -17.0679 -65.5637 342° North  Level FlightAware Approximate
10:09PM -16.9499 -65.6042 342° North  Level FlightAware Approximate
10:10PM -16.8319 -65.6447 342° North  Level FlightAware Approximate
10:11PM -16.7139 -65.6850 342° North  Level FlightAware Approximate
10:12PM -16.5959 -65.7254 342° North  Level FlightAware Approximate
10:13PM -16.4779 -65.7657 342° North  Level FlightAware Approximate
10:14PM -16.3598 -65.8059 342° North  Level FlightAware Approximate
10:15PM -16.2418 -65.8461 342° North  Level FlightAware Approximate
10:16PM -16.1238 -65.8862 342° North  Level FlightAware Approximate
10:17PM -16.0057 -65.9263 342° North  Level FlightAware Approximate
10:18PM -15.8877 -65.9664 342° North  Level FlightAware Approximate
10:19PM -15.7696 -66.0064 342° North  Level FlightAware Approximate
10:20PM -15.6516 -66.0463 342° North  Level FlightAware Approximate
10:21PM -15.5335 -66.0862 342° North  Level FlightAware Approximate
10:22PM -15.4154 -66.1261 342° North  Level FlightAware Approximate
10:23PM -15.2973 -66.1659 342° North  Level FlightAware Approximate
10:24PM -15.1792 -66.2057 342° North  Level FlightAware Approximate
10:25PM -15.0611 -66.2454 342° North  Level FlightAware Approximate
10:26PM -14.9430 -66.2850 342° North  Level FlightAware Approximate
10:27PM -14.8249 -66.3247 342° North  Level FlightAware Approximate
10:28PM -14.7067 -66.3643 342° North  Level FlightAware Approximate
10:29PM -14.5886 -66.4038 342° North  Level FlightAware Approximate
10:30PM -14.4705 -66.4433 342° North  Level FlightAware Approximate
10:31PM -14.3523 -66.4828 342° North  Level FlightAware Approximate
10:32PM -14.2342 -66.5222 342° North  Level FlightAware Approximate
10:33PM -14.1160 -66.5616 342° North  Level FlightAware Approximate
10:34PM -13.9979 -66.6010 342° North  Level FlightAware Approximate
10:35PM -13.8797 -66.6403 342° North  Level FlightAware Approximate
10:36PM -13.7615 -66.6795 342° North  Level FlightAware Approximate
10:37PM -13.6431 -66.7188 342° North  Level FlightAware Approximate
10:38PM -13.5247 -66.7580 342° North  Level FlightAware Approximate
10:39PM -13.4063 -66.7973 342° North  Level FlightAware Approximate
10:40PM -13.2879 -66.8364 342° North  Level FlightAware Approximate
10:41PM -13.1695 -66.8756 342° North  Level FlightAware Approximate
10:42PM -13.0511 -66.9147 342° North  Level FlightAware Approximate
10:43PM -12.9327 -66.9537 342° North  Level FlightAware Approximate
10:44PM -12.8143 -66.9927 342° North  Level FlightAware Approximate
10:45PM -12.6958 -67.0317 342° North  Level FlightAware Approximate
10:46PM -12.5774 -67.0707 342° North  Level FlightAware Approximate
10:47PM -12.4590 -67.1096 342° North  Level FlightAware Approximate
10:48PM -12.3405 -67.1485 342° North  Level FlightAware Approximate
10:49PM -12.2221 -67.1873 342° North  Level FlightAware Approximate
10:50PM -12.1036 -67.2261 342° North  Level FlightAware Approximate
10:51PM -11.9851 -67.2649 342° North  Level FlightAware Approximate
10:52PM -11.8667 -67.3036 342° North  Level FlightAware Approximate
10:53PM -11.7482 -67.3423 342° North  Level FlightAware Approximate
10:54PM -11.6297 -67.3810 342° North  Level FlightAware Approximate
10:55PM -11.5112 -67.4196 342° North  Level FlightAware Approximate
10:56PM -11.3927 -67.4582 342° North  Level FlightAware Approximate
10:57PM -11.2742 -67.4968 342° North  Level FlightAware Approximate
10:58PM -11.1557 -67.5353 342° North  Level FlightAware Approximate
10:59PM -11.0372 -67.5739 342° North  Level FlightAware Approximate
11:00PM -10.9187 -67.6123 342° North  Level FlightAware Approximate
11:01PM -10.8002 -67.6508 342° North  Level FlightAware Approximate
11:02PM -10.6817 -67.6892 342° North  Level FlightAware Approximate
11:03PM -10.5632 -67.7276 342° North  Level FlightAware Approximate
11:04PM -10.4446 -67.7660 342° North  Level FlightAware Approximate
11:05PM -10.3261 -67.8043 342° North  Level FlightAware Approximate
11:06PM -10.2076 -67.8426 342° North  Level FlightAware Approximate
11:07PM -10.0890 -67.8809 342° North  Level FlightAware Approximate
11:08PM -9.9705 -67.9191 342° North  Level FlightAware Approximate
11:09PM -9.8519 -67.9573 342° North  Level FlightAware Approximate
11:10PM -9.7334 -67.9955 342° North  Level FlightAware Approximate
11:11PM -9.6148 -68.0337 342° North  Level FlightAware Approximate
11:12PM -9.4963 -68.0718 342° North  Level FlightAware Approximate
11:13PM -9.3777 -68.1099 342° North  Level FlightAware Approximate
11:14PM -9.2591 -68.1480 342° North  Level FlightAware Approximate
11:15PM -9.1405 -68.1861 342° North  Level FlightAware Approximate
11:16PM -9.0219 -68.2241 342° North  Level FlightAware Approximate
11:17PM -8.9034 -68.2621 342° North  Level FlightAware Approximate
11:18PM -8.7848 -68.3001 342° North  Level FlightAware Approximate
11:19PM -8.6662 -68.3380 342° North  Level FlightAware Approximate
11:20PM -8.5476 -68.3760 342° North  Level FlightAware Approximate
11:21PM -8.4290 -68.4139 342° North  Level FlightAware Approximate
11:22PM -8.3104 -68.4518 342° North  Level FlightAware Approximate
11:23PM -8.1918 -68.4896 342° North  Level FlightAware Approximate
11:24PM -8.0732 -68.5275 342° North  Level FlightAware Approximate
11:25PM -7.9546 -68.5653 342° North  Level FlightAware Approximate
11:26PM -7.8359 -68.6031 342° North  Level FlightAware Approximate
11:27PM -7.7173 -68.6409 342° North  Level FlightAware Approximate
11:28PM -7.5987 -68.6786 342° North  Level FlightAware Approximate
11:29PM -7.4801 -68.7163 342° North  Level FlightAware Approximate
11:30PM -7.3614 -68.7541 343° North  Level FlightAware Approximate
11:31PM -7.2428 -68.7917 343° North  Level FlightAware Approximate
11:32PM -7.1242 -68.8294 343° North  Level FlightAware Approximate
11:33PM -7.0055 -68.8671 343° North  Level FlightAware Approximate
11:34PM -6.8869 -68.9047 343° North  Level FlightAware Approximate
11:35PM -6.7682 -68.9423 343° North  Level FlightAware Approximate
11:36PM -6.6496 -68.9799 343° North  Level FlightAware Approximate
11:37PM -6.5309 -69.0175 343° North  Level FlightAware Approximate
11:38PM -6.4123 -69.0551 343° North  Level FlightAware Approximate
11:39PM -6.2936 -69.0926 343° North  Level FlightAware Approximate
11:40PM -6.1750 -69.1301 343° North  Level FlightAware Approximate
11:41PM -6.0563 -69.1676 343° North  Level FlightAware Approximate
11:42PM -5.9377 -69.2051 343° North  Level FlightAware Approximate
11:43PM -5.8190 -69.2426 343° North  Level FlightAware Approximate
11:44PM -5.7003 -69.2801 343° North  Level FlightAware Approximate
11:45PM -5.5816 -69.3175 343° North  Level FlightAware Approximate
11:46PM -5.4630 -69.3549 343° North  Level FlightAware Approximate
11:47PM -5.3443 -69.3924 343° North  Level FlightAware Approximate
11:48PM -5.2256 -69.4298 343° North  Level FlightAware Approximate
11:49PM -5.1069 -69.4672 343° North  Level FlightAware Approximate
11:50PM -4.9882 -69.5045 343° North  Level FlightAware Approximate
11:51PM -4.8696 -69.5419 343° North  Level FlightAware Approximate
11:52PM -4.7509 -69.5792 343° North  Level FlightAware Approximate
11:53PM -4.6322 -69.6166 343° North  Level FlightAware Approximate
11:54PM -4.5135 -69.6539 343° North  Level FlightAware Approximate
11:55PM -4.3948 -69.6912 343° North  Level FlightAware Approximate
11:56PM -4.2761 -69.7285 343° North  Level FlightAware Approximate
11:57PM -4.1576 -69.7657 343° North  Level FlightAware Approximate
11:58PM -4.0391 -69.8029 343° North  Level FlightAware Approximate
11:59PM -3.9206 -69.8401 343° North  Level FlightAware Approximate
12:00AM -3.8021 -69.8773 343° North  Level FlightAware Approximate
12:01AM -3.6836 -69.9145 343° North  Level FlightAware Approximate
12:02AM -3.5651 -69.9517 343° North  Level FlightAware Approximate
12:03AM -3.4466 -69.9888 343° North  Level FlightAware Approximate
12:04AM -3.3281 -70.0260 343° North  Level FlightAware Approximate
12:05AM -3.2096 -70.0631 343° North  Level FlightAware Approximate
12:06AM -3.0911 -70.1003 343° North  Level FlightAware Approximate
12:07AM -2.9726 -70.1374 343° North  Level FlightAware Approximate
12:08AM -2.8540 -70.1745 343° North  Level FlightAware Approximate
12:09AM -2.7355 -70.2116 343° North  Level FlightAware Approximate
12:10AM -2.6170 -70.2487 343° North  Level FlightAware Approximate
12:11AM -2.4985 -70.2858 343° North  Level FlightAware Approximate
12:12AM -2.3800 -70.3229 343° North  Level FlightAware Approximate
12:13AM -2.2615 -70.3600 343° North  Level FlightAware Approximate
12:14AM -2.1430 -70.3971 343° North  Level FlightAware Approximate
12:15AM -2.0244 -70.4341 343° North  Level FlightAware Approximate
12:16AM -1.9059 -70.4712 343° North  Level FlightAware Approximate
12:17AM -1.7874 -70.5083 343° North  Level FlightAware Approximate
12:18AM -1.6689 -70.5453 343° North  Level FlightAware Approximate
12:19AM -1.5503 -70.5824 343° North  Level FlightAware Approximate
12:20AM -1.4318 -70.6194 343° North  Level FlightAware Approximate
12:21AM -1.3133 -70.6565 343° North  Level FlightAware Approximate
12:22AM -1.1948 -70.6935 343° North  Level FlightAware Approximate
12:23AM -1.0763 -70.7305 343° North  Level FlightAware Approximate
12:24AM -0.9577 -70.7676 343° North  Level FlightAware Approximate
12:25AM -0.8392 -70.8046 343° North  Level FlightAware Approximate
12:26AM -0.7207 -70.8416 343° North  Level FlightAware Approximate
12:27AM -0.6021 -70.8787 343° North  Level FlightAware Approximate
12:28AM -0.4836 -70.9157 343° North  Level FlightAware Approximate
12:29AM -0.3651 -70.9527 343° North  Level FlightAware Approximate
12:30AM -0.2465 -70.9897 343° North  Level FlightAware Approximate
12:31AM -0.1280 -71.0267 343° North  Level FlightAware Approximate
12:32AM -0.0095 -71.0638 343° North  Level FlightAware Approximate
12:33AM 0.1090 -71.1008 343° North  Level FlightAware Approximate
12:34AM 0.2276 -71.1378 343° North  Level FlightAware Approximate
12:35AM 0.3461 -71.1748 343° North  Level FlightAware Approximate
12:36AM 0.4646 -71.2118 343° North  Level FlightAware Approximate
12:37AM 0.5832 -71.2489 343° North  Level FlightAware Approximate
12:38AM 0.7017 -71.2859 343° North  Level FlightAware Approximate
12:39AM 0.8202 -71.3229 343° North  Level FlightAware Approximate
12:40AM 0.9388 -71.3600 343° North  Level FlightAware Approximate
12:41AM 1.0573 -71.3970 343° North  Level FlightAware Approximate
12:42AM 1.1758 -71.4340 343° North  Level FlightAware Approximate
12:43AM 1.2943 -71.4711 343° North  Level FlightAware Approximate
12:44AM 1.4128 -71.5081 343° North  Level FlightAware Approximate
12:45AM 1.5314 -71.5452 343° North  Level FlightAware Approximate
12:46AM 1.6499 -71.5822 343° North  Level FlightAware Approximate
12:47AM 1.7684 -71.6193 343° North  Level FlightAware Approximate
12:48AM 1.8869 -71.6563 343° North  Level FlightAware Approximate
12:49AM 2.0055 -71.6934 343° North  Level FlightAware Approximate
12:50AM 2.1240 -71.7305 343° North  Level FlightAware Approximate
12:51AM 2.2425 -71.7676 343° North  Level FlightAware Approximate
12:52AM 2.3610 -71.8047 343° North  Level FlightAware Approximate
12:53AM 2.4795 -71.8418 343° North  Level FlightAware Approximate
12:54AM 2.5980 -71.8789 343° North  Level FlightAware Approximate
12:55AM 2.7165 -71.9160 343° North  Level FlightAware Approximate
12:56AM 2.8350 -71.9531 343° North  Level FlightAware Approximate
12:57AM 2.9535 -71.9902 343° North  Level FlightAware Approximate
12:58AM 3.0721 -72.0274 343° North  Level FlightAware Approximate
12:59AM 3.1906 -72.0645 343° North  Level FlightAware Approximate
01:00AM 3.3091 -72.1017 343° North  Level FlightAware Approximate
01:01AM 3.4276 -72.1388 343° North  Level FlightAware Approximate
01:02AM 3.5461 -72.1760 343° North  Level FlightAware Approximate
01:03AM 3.6646 -72.2132 343° North  Level FlightAware Approximate
01:04AM 3.7831 -72.2504 343° North  Level FlightAware Approximate
01:05AM 3.9016 -72.2876 343° North  Level FlightAware Approximate
01:06AM 4.0201 -72.3248 343° North  Level FlightAware Approximate
01:07AM 4.1385 -72.3620 343° North  Level FlightAware Approximate
01:08AM 4.2572 -72.3993 343° North  Level FlightAware Approximate
01:09AM 4.3759 -72.4366 343° North  Level FlightAware Approximate
01:10AM 4.4946 -72.4740 343° North  Level FlightAware Approximate
01:11AM 4.6133 -72.5113 343° North  Level FlightAware Approximate
01:12AM 4.7320 -72.5486 343° North  Level FlightAware Approximate
01:13AM 4.8508 -72.5857 343° North  Level FlightAware Approximate
01:14AM 4.9695 -72.6229 343° North  Level FlightAware Approximate
01:15AM 5.0883 -72.6601 343° North  Level FlightAware Approximate
01:16AM 5.2070 -72.6973 343° North  Level FlightAware Approximate
01:17AM 5.3257 -72.7345 343° North  Level FlightAware Approximate
01:18AM 5.4445 -72.7717 343° North  Level FlightAware Approximate
01:19AM 5.5612 -72.8083 343° North  Level FlightAware Approximate
01:20AM 5.6780 -72.8450 343° North  Level FlightAware Approximate
01:21AM 5.7947 -72.8816 343° North  Level FlightAware Approximate
01:22AM 5.9115 -72.9183 343° North  Level FlightAware Approximate
01:23AM 6.0282 -72.9550 343° North  Level FlightAware Approximate
01:24AM 6.1449 -72.9917 343° North  Level FlightAware Approximate
01:25AM 6.2617 -73.0284 343° North  Level FlightAware Approximate
01:26AM 6.3784 -73.0651 343° North  Level FlightAware Approximate
01:27AM 6.4952 -73.1019 343° North  Level FlightAware Approximate
01:28AM 6.6119 -73.1386 343° North  Level FlightAware Approximate
01:29AM 6.7286 -73.1754 343° North  Level FlightAware Approximate
01:30AM 6.8453 -73.2122 343° North  Level FlightAware Approximate
01:31AM 6.9621 -73.2490 343° North  Level FlightAware Approximate
01:32AM 7.0788 -73.2859 343° North  Level FlightAware Approximate
01:33AM 7.1955 -73.3227 343° North  Level FlightAware Approximate
01:34AM 7.3122 -73.3596 343° North  Level FlightAware Approximate
01:35AM 7.4289 -73.3965 343° North  Level FlightAware Approximate
01:36AM 7.5456 -73.4334 343° North  Level FlightAware Approximate
01:37AM 7.6623 -73.4703 343° North  Level FlightAware Approximate
01:38AM 7.7790 -73.5073 343° North  Level FlightAware Approximate
01:39AM 7.8957 -73.5442 343° North  Level FlightAware Approximate
01:40AM 8.0124 -73.5812 343° North  Level FlightAware Approximate
01:41AM 8.1291 -73.6182 343° North  Level FlightAware Approximate
01:42AM 8.2458 -73.6553 343° North  Level FlightAware Approximate
01:43AM 8.3625 -73.6923 343° North  Level FlightAware Approximate
01:44AM 8.4792 -73.7294 343° North  Level FlightAware Approximate
01:45AM 8.5959 -73.7665 343° North  Level FlightAware Approximate
01:46AM 8.7126 -73.8036 343° North  Level FlightAware Approximate
01:47AM 8.8292 -73.8408 343° North  Level FlightAware Approximate
01:48AM 8.9459 -73.8780 343° North  Level FlightAware Approximate
01:49AM 9.0625 -73.9152 343° North  Level FlightAware Approximate
01:50AM 9.1792 -73.9524 343° North  Level FlightAware Approximate
01:51AM 9.2959 -73.9896 343° North  Level FlightAware Approximate
01:52AM 9.4125 -74.0269 343° North  Level FlightAware Approximate
01:53AM 9.5292 -74.0642 343° North  Level FlightAware Approximate
01:54AM 9.6458 -74.1015 342° North  Level FlightAware Approximate
01:55AM 9.7625 -74.1388 342° North  Level FlightAware Approximate
01:56AM 9.8791 -74.1762 342° North  Level FlightAware Approximate
01:57AM 9.9957 -74.2136 342° North  Level FlightAware Approximate
01:58AM 10.1124 -74.2510 342° North  Level FlightAware Approximate
01:59AM 10.2290 -74.2885 342° North  Level FlightAware Approximate
02:00AM 10.3456 -74.3261 342° North  Level FlightAware Approximate
02:01AM 10.4621 -74.3639 342° North  Level FlightAware Approximate
02:02AM 10.5786 -74.4018 342° North  Level FlightAware Approximate
02:03AM 10.6951 -74.4398 342° North  Level FlightAware Approximate
02:04AM 10.8115 -74.4778 342° North  Level FlightAware Approximate
02:05AM 10.9280 -74.5158 342° North  Level FlightAware Approximate
02:06AM 11.0445 -74.5538 342° North  Level FlightAware Approximate
02:07AM 11.1610 -74.5919 342° North  Level FlightAware Approximate
02:08AM 11.2774 -74.6299 342° North  Level FlightAware Approximate
02:09AM 11.3939 -74.6681 342° North  Level FlightAware Approximate
02:10AM 11.5104 -74.7062 342° North  Level FlightAware Approximate
02:11AM 11.6268 -74.7444 342° North  Level FlightAware Approximate
02:12AM 11.7432 -74.7826 342° North  Level FlightAware Approximate
02:13AM 11.8597 -74.8209 342° North  Level FlightAware Approximate
02:14AM 11.9761 -74.8592 342° North  Level FlightAware Approximate
02:15AM 12.0926 -74.8975 342° North  Level FlightAware Approximate
02:16AM 12.2090 -74.9358 342° North  Level FlightAware Approximate
02:17AM 12.3254 -74.9742 342° North  Level FlightAware Approximate
02:18AM 12.4418 -75.0126 342° North  Level FlightAware Approximate
02:19AM 12.5606 -75.0519 342° North  Level FlightAware Approximate
02:20AM 12.6794 -75.0911 342° North  Level FlightAware Approximate
02:21AM 12.7981 -75.1304 342° North  Level FlightAware Approximate
02:22AM 12.9169 -75.1698 342° North  Level FlightAware Approximate
02:23AM 13.0357 -75.2092 342° North  Level FlightAware Approximate
02:24AM 13.1544 -75.2486 342° North  Level FlightAware Approximate
02:25AM 13.2732 -75.2880 342° North  Level FlightAware Approximate
02:26AM 13.3919 -75.3276 342° North  Level FlightAware Approximate
02:27AM 13.5107 -75.3671 342° North  Level FlightAware Approximate
02:28AM 13.6294 -75.4067 342° North  Level FlightAware Approximate
02:29AM 13.7481 -75.4463 342° North  Level FlightAware Approximate
02:30AM 13.8668 -75.4859 342° North  Level FlightAware Approximate
02:31AM 13.9855 -75.5257 342° North  Level FlightAware Approximate
02:32AM 14.1042 -75.5654 342° North  Level FlightAware Approximate
02:33AM 14.2229 -75.6052 342° North  Level FlightAware Approximate
02:34AM 14.3416 -75.6450 342° North  Level FlightAware Approximate
02:35AM 14.4603 -75.6849 342° North  Level FlightAware Approximate
02:36AM 14.5790 -75.7247 342° North  Level FlightAware Approximate
02:37AM 14.6977 -75.7647 342° North  Level FlightAware Approximate
02:38AM 14.8163 -75.8047 342° North  Level FlightAware Approximate
02:39AM 14.9350 -75.8447 342° North  Level FlightAware Approximate
02:40AM 15.0537 -75.8846 342° North  Level FlightAware Approximate
02:41AM 15.1726 -75.9241 342° North  Level FlightAware Approximate
02:42AM 15.2914 -75.9637 342° North  Level FlightAware Approximate
02:43AM 15.4102 -76.0034 342° North  Level FlightAware Approximate
02:44AM 15.5290 -76.0431 342° North  Level FlightAware Approximate
02:45AM 15.6477 -76.0828 342° North  Level FlightAware Approximate
02:46AM 15.7665 -76.1226 342° North  Level FlightAware Approximate
02:47AM 15.8853 -76.1625 342° North  Level FlightAware Approximate
02:48AM 16.0041 -76.2024 342° North  Level FlightAware Approximate
02:49AM 16.1228 -76.2423 342° North  Level FlightAware Approximate
02:50AM 16.2416 -76.2823 342° North  Level FlightAware Approximate
02:51AM 16.3603 -76.3223 342° North  Level FlightAware Approximate
02:52AM 16.4791 -76.3624 342° North  Level FlightAware Approximate
02:53AM 16.5978 -76.4025 342° North  Level FlightAware Approximate
02:54AM 16.7165 -76.4427 342° North  Level FlightAware Approximate
02:55AM 16.8353 -76.4829 342° North  Level FlightAware Approximate
02:56AM 16.9540 -76.5232 342° North  Level FlightAware Approximate
02:57AM 17.0727 -76.5635 342° North  Level FlightAware Approximate
02:58AM 17.1914 -76.6039 342° North  Level FlightAware Approximate
02:59AM 17.3100 -76.6443 342° North  Level FlightAware Approximate
03:00AM 17.4287 -76.6848 342° North  Level FlightAware Approximate
03:01AM 17.5474 -76.7254 342° North  Level FlightAware Approximate
03:02AM 17.6660 -76.7660 342° North  Level FlightAware Approximate
03:03AM 17.7847 -76.8066 342° North  Level FlightAware Approximate
03:04AM 17.9033 -76.8473 342° North  Level FlightAware Approximate
03:05AM 18.0220 -76.8881 342° North  Level FlightAware Approximate
03:06AM 18.1406 -76.9289 342° North  Level FlightAware Approximate
03:07AM 18.2592 -76.9697 342° North  Level FlightAware Approximate
03:08AM 18.3778 -77.0107 342° North  Level FlightAware Approximate
03:09AM 18.4964 -77.0517 342° North  Level FlightAware Approximate
03:10AM 18.6150 -77.0927 342° North  Level FlightAware Approximate
03:11AM 18.7336 -77.1338 342° North  Level FlightAware Approximate
03:12AM 18.8522 -77.1749 342° North  Level FlightAware Approximate
03:13AM 18.9707 -77.2161 342° North  Level FlightAware Approximate
03:14AM 19.0893 -77.2574 342° North  Level FlightAware Approximate
03:15AM 19.2078 -77.2987 342° North  Level FlightAware Approximate
03:16AM 19.3264 -77.3401 342° North  Level FlightAware Approximate
03:17AM 19.4449 -77.3816 342° North  Level FlightAware Approximate
03:18AM 19.5627 -77.4255 341° North  Level FlightAware Approximate
03:19AM 19.6803 -77.4695 341° North  Level FlightAware Approximate
03:20AM 19.7980 -77.5137 341° North  Level FlightAware Approximate
03:21AM 19.9157 -77.5579 341° North  Level FlightAware Approximate
03:22AM 20.0337 -77.6012 342° North  Level FlightAware Approximate
03:23AM 20.1521 -77.6432 342° North  Level FlightAware Approximate
03:24AM 20.2705 -77.6854 342° North  Level FlightAware Approximate
03:25AM 20.3901 -77.7280 342° North  Level FlightAware Approximate
03:26AM 20.5096 -77.7707 342° North  Level FlightAware Approximate
03:27AM 20.6292 -77.8134 342° North  Level FlightAware Approximate
03:28AM 20.7488 -77.8562 341° North  Level FlightAware Approximate
03:29AM 20.8683 -77.8991 341° North  Level FlightAware Approximate
03:30AM 20.9879 -77.9421 341° North  Level FlightAware Approximate
03:31AM 21.1074 -77.9851 341° North  Level FlightAware Approximate
03:32AM 21.2269 -78.0282 341° North  Level FlightAware Approximate
03:33AM 21.3464 -78.0714 341° North  Level FlightAware Approximate
03:34AM 21.4659 -78.1146 341° North  Level FlightAware Approximate
03:35AM 21.5854 -78.1579 341° North  Level FlightAware Approximate
03:36AM 21.7049 -78.2012 341° North  Level FlightAware Approximate
03:37AM 21.8243 -78.2447 341° North  Level FlightAware Approximate
03:38AM 21.9438 -78.2882 341° North  Level FlightAware Approximate
03:39AM 22.0632 -78.3318 341° North  Level FlightAware Approximate
03:40AM 22.1827 -78.3755 341° North  Level FlightAware Approximate
03:41AM 22.3021 -78.4192 341° North  Level FlightAware Approximate
03:42AM 22.4215 -78.4630 341° North  Level FlightAware Approximate
03:43AM 22.5409 -78.5069 341° North  Level FlightAware Approximate
03:44AM 22.6603 -78.5509 341° North  Level FlightAware Approximate
03:45AM 22.7796 -78.5949 341° North  Level FlightAware Approximate
03:46AM 22.8990 -78.6391 341° North  Level FlightAware Approximate
03:47AM 23.0184 -78.6833 341° North  Level FlightAware Approximate
03:48AM 23.1377 -78.7275 341° North  Level FlightAware Approximate
03:49AM 23.2570 -78.7719 341° North  Level FlightAware Approximate
03:50AM 23.3763 -78.8163 341° North  Level FlightAware Approximate
03:51AM 23.4956 -78.8608 341° North  Level FlightAware Approximate
03:52AM 23.6149 -78.9054 341° North  Level FlightAware Approximate
03:53AM 23.7342 -78.9501 341° North  Level FlightAware Approximate
03:54AM 23.8534 -78.9949 341° North  Level FlightAware Approximate
03:55AM 23.9727 -79.0397 341° North  Level FlightAware Approximate
03:56AM 24.0906 -79.0884 341° North  Level FlightAware Approximate
03:57AM 24.2097 -79.1336 341° North  Level FlightAware Approximate
03:58AM 24.3289 -79.1789 341° North  Level FlightAware Approximate
03:59AM 24.4480 -79.2243 341° North  Level FlightAware Approximate
04:00AM 24.5671 -79.2697 341° North  Level FlightAware Approximate
04:01AM 24.6862 -79.3153 341° North  Level FlightAware Approximate
04:02AM 24.8053 -79.3609 341° North  Level FlightAware Approximate
04:03AM 24.9244 -79.4066 341° North  Level FlightAware Approximate
04:04AM 25.0434 -79.4525 341° North  Level FlightAware Approximate
04:05AM 25.1625 -79.4984 341° North  Level FlightAware Approximate
04:06AM 25.2817 -79.5437 341° North  Level FlightAware Approximate
04:07AM 25.4009 -79.5892 341° North  Level FlightAware Approximate
04:08AM 25.5202 -79.6347 341° North  Level FlightAware Approximate
04:09AM 25.6395 -79.6796 341° North  Level FlightAware Approximate
04:10AM 25.7589 -79.7247 341° North  Level FlightAware Approximate
04:11AM 25.8783 -79.7699 341° North  Level FlightAware Approximate
04:12AM 25.9976 -79.8151 341° North  Level FlightAware Approximate
04:13AM 26.1170 -79.8605 341° North  Level FlightAware Approximate
04:14AM 26.2355 -79.9082 340° North  Level FlightAware Approximate
04:15AM 26.3540 -79.9565 340° North  Level FlightAware Approximate
04:16AM 26.4724 -80.0049 340° North  Level FlightAware Approximate
04:17AM 26.5908 -80.0533 340° North  Level FlightAware Approximate
04:18AM 26.7092 -80.1019 340° North  Level FlightAware Approximate
04:19AM 26.8276 -80.1506 340° North  Level FlightAware Approximate
04:20AM 26.9464 -80.1980 341° North  Level FlightAware Approximate
04:21AM 27.0653 -80.2449 341° North  Level FlightAware Approximate
04:22AM 27.1843 -80.2918 341° North  Level FlightAware Approximate
04:23AM 27.3032 -80.3389 341° North  Level FlightAware Approximate
04:24AM 27.4222 -80.3860 341° North  Level FlightAware Approximate
04:25AM 27.5411 -80.4333 341° North  Level FlightAware Approximate
04:26AM 27.6600 -80.4807 341° North  Level FlightAware Approximate
04:27AM 27.7800 -80.5246 342° North  Level FlightAware Approximate
04:28AM 27.9000 -80.5683 342° North  Level FlightAware Approximate
04:29AM 28.0200 -80.6122 342° North  Level FlightAware Approximate
04:29AM 28.8753 -80.8939 341° North 441 507 38,000  Level Jacksonville Center
04:30AM 28.1399 -80.6561 342° North  Level FlightAware Approximate
04:30AM 28.9828 -80.9628 331° Northwest 439 505 38,000  Level Jacksonville Center
04:31AM 28.2599 -80.7002 342° North  Level FlightAware Approximate
04:31AM 29.0903 -81.0297 331° Northwest 444 511 38,000  Level Jacksonville Center
04:32AM 28.3796 -80.7451 341° North  Level FlightAware Approximate
04:32AM 29.1975 -81.0967 331° Northwest 450 518 38,000  Level Jacksonville Center
04:33AM 28.4986 -80.7927 341° North  Level FlightAware Approximate
04:33AM 29.3028 -81.1636 331° Northwest 450 518 38,000  Level Jacksonville Center
04:34AM 28.6176 -80.8403 341° North  Level FlightAware Approximate
04:34AM 29.4081 -81.2333 330° Northwest 450 518 38,000  Level Jacksonville Center
04:35AM 29.5133 -81.3056 329° Northwest 455 524 38,000  Level Jacksonville Center
04:36AM 29.6208 -81.3731 331° Northwest 450 518 38,000  Level Jacksonville Center
04:37AM 29.7300 -81.4431 331° Northwest 450 518 38,000  Level Jacksonville Center
04:38AM 29.8353 -81.5111 331° Northwest 456 525 38,000  Level Jacksonville Center
04:39AM 29.9444 -81.5814 331° Northwest 450 518 38,000  Level Jacksonville Center
04:40AM 30.0517 -81.6519 330° Northwest 444 511 38,000  Level Jacksonville Center
04:41AM 30.1567 -81.7203 331° Northwest 444 511 38,000  Level Jacksonville Center
04:42AM 30.2639 -81.7864 332° Northwest 439 505 38,000  Level Jacksonville Center
04:43AM 30.3689 -81.8550 331° Northwest 434 499 38,000  Level Jacksonville Center
04:44AM 30.4758 -81.9261 330° Northwest 434 499 38,000 -300 Level Jacksonville Center
04:45AM 30.5744 -81.9975 328° Northwest 451 519 37,500 -780 Descending Jacksonville Center
04:46AM 30.6772 -82.0667 330° Northwest 441 507 36,500 -1,200 Descending Jacksonville Center
04:47AM 30.7800 -82.1358 330° Northwest 436 502 35,200 -1,200 Descending Jacksonville Center
04:48AM 30.8828 -82.2028 331° Northwest 426 490 34,100 -1,140 Descending Jacksonville Center
04:49AM 30.9853 -82.2722 330° Northwest 426 490 33,000 -600 Descending Jacksonville Center
04:50AM 31.0881 -82.3419 330° Northwest 426 490 33,000  Level Jacksonville Center
04:51AM 31.1947 -82.4117 331° Northwest 426 490 33,000  Level Jacksonville Center
04:52AM 31.2972 -82.4817 330° Northwest 426 490 33,000  Level Jacksonville Center
04:53AM 31.3997 -82.5494 331° Northwest 426 490 33,000  Level Jacksonville Center
04:56AM 31.6478 -82.7214 329° Northwest 424 488 33,000  Level Atlanta Center
04:57AM 31.7550 -82.7908 331° Northwest 424 488 33,000  Level Atlanta Center
04:58AM 31.8578 -82.8628 329° Northwest 424 488 33,000  Level Atlanta Center
04:59AM 31.9628 -82.9322 331° Northwest 424 488 33,000  Level Atlanta Center
05:00AM 32.0658 -83.0169 325° Northwest 434 499 33,000  Level Atlanta Center
05:01AM 32.1625 -83.1017 323° Northwest 439 505 33,000  Level Atlanta Center
05:02AM 32.2614 -83.1889 323° Northwest 439 505 33,000  Level Atlanta Center
05:03AM 32.3578 -83.2789 322° Northwest 439 505 33,000 -480 Level Atlanta Center
05:04AM 32.4564 -83.3644 324° Northwest 439 505 32,100 -1,740 Descending Atlanta Center
05:05AM 32.5531 -83.4522 323° Northwest 444 511 29,600 -2,460 Descending Atlanta Center
05:06AM 32.6494 -83.5431 322° Northwest 439 505 27,200 -2,460 Descending Atlanta Center
05:07AM 32.7417 -83.6264 323° Northwest 439 505 24,700 -2,460 Descending Atlanta Center
05:08AM 32.8336 -83.7100 323° Northwest 428 493 22,300 -2,460 Descending Atlanta Center
05:09AM 32.9236 -83.7889 324° Northwest 419 482 19,800 -2,460 Descending Atlanta Center
05:10AM 33.0114 -83.8703 322° Northwest 414 476 17,400 -2,400 Descending Atlanta Center
05:11AM 33.1075 -83.9569 323° Northwest 403 464 15,100 -2,040 Descending Atlanta Center
05:12AM 33.1911 -84.0339 322° Northwest 386 444 13,400 -1,980 Descending Atlanta Center
05:13AM 33.2703 -84.1083 322° Northwest 378 435 11,200 -1,200 Descending Atlanta Center
05:14AM 33.3475 -84.1781 323° Northwest 359 413 11,000 -120 Descending Atlanta Center
05:14AM 33.4000 -84.2167 328° Northwest 309 356 11,000  Level Atlanta TRACON
05:15AM 33.4333 -84.3167 292° West 302 348 11,000 -840 Level Atlanta TRACON
05:16AM 33.4667 -84.4167 292° West 305 351 9,300 -2,100 Descending Atlanta TRACON
05:17AM 33.5000 -84.5000 296° West 304 350 6,900 -2,400 Descending Atlanta TRACON
05:18AM 33.5333 -84.5667 301° West 291 335 5,000 -1,920 Descending Atlanta TRACON
05:19AM 33.5833 -84.6333 312° West 271 312 3,500 -1,020 Descending Atlanta TRACON
05:20AM 33.6333 -84.6000 29° Northeast 205 236 3,000 -540 Descending Atlanta TRACON